Time;durP1;ratioP1;P1;durP2;ratioP2;P2;SDS_P1;SDS_P2;PMS_P1;PMS_P2;Temp;Humidity;BMP_temperature;BMP_pressure;BME280_temperature;BME280_humidity;BME280_pressure;Samples;Min_cycle;Max_cycle;Signal;HPM_P1;HPM_P2
2023/09/16 00:01:52;;;;;;;18.33;14.73;;;14.50;87.00;;;;;;4925284;28;20043;-81
2023/09/16 00:04:18;;;;;;;14.85;13.43;;;14.50;87.10;;;;;;4941569;28;20047;-81
2023/09/16 00:06:44;;;;;;;17.60;13.38;;;14.40;87.00;;;;;;4941657;28;20046;-83
2023/09/16 00:09:10;;;;;;;15.98;14.40;;;14.50;87.10;;;;;;4944492;28;20054;-81
2023/09/16 00:11:36;;;;;;;19.40;15.38;;;14.50;87.00;;;;;;4945280;28;20039;-82
2023/09/16 00:14:02;;;;;;;15.93;14.40;;;14.50;87.00;;;;;;4929808;28;20047;-81
2023/09/16 00:16:29;;;;;;;16.90;14.45;;;14.50;87.10;;;;;;4945445;28;20034;-80
2023/09/16 00:18:55;;;;;;;16.58;14.73;;;14.40;87.10;;;;;;4929263;28;20142;-83
2023/09/16 00:21:21;;;;;;;17.65;15.30;;;14.40;87.20;;;;;;4945225;28;20368;-82
2023/09/16 00:23:47;;;;;;;17.40;15.57;;;14.40;87.30;;;;;;4929021;28;20066;-81
2023/09/16 00:26:14;;;;;;;17.95;15.52;;;14.30;87.30;;;;;;4929186;28;20046;-83
2023/09/16 00:28:40;;;;;;;17.27;15.48;;;14.30;87.50;;;;;;4945029;28;20053;-83
2023/09/16 00:31:07;;;;;;;17.33;14.90;;;14.30;87.70;;;;;;4928918;28;20046;-83
2023/09/16 00:33:33;;;;;;;19.75;15.75;;;14.30;87.60;;;;;;4929070;28;20054;-83
2023/09/16 00:35:59;;;;;;;18.20;16.30;;;14.30;87.70;;;;;;4931796;29;20035;-81
2023/09/16 00:38:24;;;;;;;18.70;16.80;;;14.30;87.80;;;;;;4941535;29;20035;-83
2023/09/16 00:40:51;;;;;;;18.05;16.25;;;14.30;87.70;;;;;;4925285;28;20058;-81
2023/09/16 00:43:16;;;;;;;17.15;15.45;;;14.30;87.70;;;;;;4909734;29;20078;-82
2023/09/16 00:45:42;;;;;;;17.20;15.45;;;14.40;88.00;;;;;;4893863;29;20091;-84
2023/09/16 00:48:12;;;;;;;19.02;15.48;;;14.40;88.10;;;;;;4893880;29;20047;-85
2023/09/16 00:50:38;;;;;;;17.33;15.05;;;14.50;88.10;;;;;;4943055;28;20387;-82
2023/09/16 00:53:04;;;;;;;17.00;15.27;;;14.50;88.00;;;;;;4928283;28;20122;-83
2023/09/16 00:55:30;;;;;;;17.35;15.52;;;14.50;88.00;;;;;;4944068;28;20039;-81
2023/09/16 00:57:57;;;;;;;19.77;16.38;;;14.50;87.80;;;;;;4944270;28;20046;-85
2023/09/16 01:00:26;;;;;;;17.98;16.05;;;14.50;87.80;;;;;;4943910;28;20487;-83
2023/09/16 01:02:53;;;;;;;17.55;15.00;;;14.50;88.00;;;;;;4944239;28;20047;-83
2023/09/16 01:05:19;;;;;;;18.77;16.77;;;14.50;87.70;;;;;;4943860;28;20049;-85
2023/09/16 01:07:46;;;;;;;17.10;15.45;;;14.50;87.80;;;;;;4958964;28;20039;-84
2023/09/16 01:10:13;;;;;;;19.27;16.98;;;14.50;87.80;;;;;;4944066;28;20050;-82
2023/09/16 01:12:39;;;;;;;20.38;17.30;;;14.50;87.90;;;;;;4943799;28;20487;-84
2023/09/16 01:15:08;;;;;;;19.98;16.90;;;14.50;87.80;;;;;;4943559;28;20046;-84
2023/09/16 01:17:42;;;;;;;20.40;17.20;;;14.50;87.80;;;;;;4944128;28;20042;-83
2023/09/16 01:20:15;;;;;;;19.92;17.65;;;14.50;87.90;;;;;;4959329;28;20035;-81
2023/09/16 01:22:45;;;;;;;21.48;17.15;;;14.40;87.90;;;;;;4942723;28;20035;-85
2023/09/16 01:25:15;;;;;;;19.35;17.45;;;14.40;87.90;;;;;;4943290;28;20065;-84
2023/09/16 01:27:42;;;;;;;20.20;18.08;;;14.40;87.90;;;;;;4943549;28;20047;-81
2023/09/16 01:30:09;;;;;;;20.90;18.42;;;14.30;88.10;;;;;;4943488;28;20513;-82
2023/09/16 01:32:51;;;;;;;20.40;18.30;;;14.20;88.00;;;;;;4927719;28;20113;-81
2023/09/16 01:35:21;;;;;;;19.83;17.83;;;14.20;88.10;;;;;;4943419;28;20043;-84
2023/09/16 01:37:49;;;;;;;21.05;18.95;;;14.10;88.00;;;;;;4942895;28;20039;-84
2023/09/16 01:40:15;;;;;;;20.42;18.23;;;14.10;87.90;;;;;;4943586;28;20093;-81
2023/09/16 01:42:42;;;;;;;19.88;17.73;;;14.10;87.80;;;;;;4959170;28;20450;-83
2023/09/16 01:45:10;;;;;;;18.50;16.75;;;14.10;88.10;;;;;;4959075;28;20050;-81
2023/09/16 01:47:35;;;;;;;20.52;18.52;;;14.10;88.30;;;;;;4943480;28;20481;-85
2023/09/16 01:50:02;;;;;;;20.50;18.33;;;14.00;88.10;;;;;;4943099;28;20174;-81
2023/09/16 01:52:27;;;;;;;20.95;18.83;;;14.00;88.20;;;;;;4927138;28;20055;-86
2023/09/16 01:54:53;;;;;;;20.60;18.20;;;14.00;88.50;;;;;;4942256;28;20065;-85
2023/09/16 01:57:19;;;;;;;20.52;18.52;;;14.00;88.40;;;;;;4942959;28;20042;-85
2023/09/16 01:59:45;;;;;;;22.40;19.85;;;14.00;88.30;;;;;;4942955;28;20038;-82
2023/09/16 02:02:11;;;;;;;21.92;19.23;;;13.90;88.40;;;;;;4942981;28;20061;-84
2023/09/16 02:04:38;;;;;;;22.20;19.80;;;13.90;88.30;;;;;;4927081;28;20047;-84
2023/09/16 02:07:04;;;;;;;23.30;20.80;;;13.90;88.20;;;;;;4942792;28;20042;-81
2023/09/16 02:09:30;;;;;;;22.52;20.13;;;13.80;88.30;;;;;;4957412;28;20065;-84
2023/09/16 02:11:56;;;;;;;22.33;19.83;;;13.70;88.40;;;;;;4958805;28;20047;-81
2023/09/16 02:14:21;;;;;;;22.58;20.33;;;13.70;88.70;;;;;;4942431;28;20506;-83
2023/09/16 02:16:47;;;;;;;21.85;19.15;;;13.60;88.60;;;;;;4958988;28;20038;-84
2023/09/16 02:19:13;;;;;;;22.70;20.33;;;13.60;88.50;;;;;;4958462;28;20486;-83
2023/09/16 02:21:39;;;;;;;21.80;19.58;;;13.50;88.80;;;;;;4926563;28;20204;-82
2023/09/16 02:24:05;;;;;;;24.65;20.58;;;13.50;89.00;;;;;;4958300;28;20388;-82
2023/09/16 02:26:31;;;;;;;22.58;20.40;;;13.40;89.10;;;;;;4926046;28;20093;-84
2023/09/16 02:28:56;;;;;;;23.25;20.25;;;13.40;89.20;;;;;;4942392;28;20494;-83
2023/09/16 02:31:26;;;;;;;22.63;19.27;;;13.40;89.30;;;;;;4941484;28;20042;-84
2023/09/16 02:33:55;;;;;;;23.33;19.10;;;13.40;89.40;;;;;;4958161;28;20050;-82
2023/09/16 02:36:21;;;;;;;22.95;19.42;;;13.30;89.40;;;;;;4942231;28;20090;-81
2023/09/16 02:38:48;;;;;;;24.65;21.25;;;13.40;89.50;;;;;;4926701;28;20082;-83
2023/09/16 02:41:17;;;;;;;26.27;22.23;;;13.40;89.50;;;;;;4926689;28;20121;-83
2023/09/16 02:43:44;;;;;;;23.10;20.67;;;13.40;89.40;;;;;;4927591;29;20168;-82
2023/09/16 02:46:10;;;;;;;24.42;21.83;;;13.40;89.40;;;;;;4907715;29;20397;-84
2023/09/16 02:48:35;;;;;;;22.98;20.50;;;13.40;89.50;;;;;;4923025;28;20043;-81
2023/09/16 02:51:03;;;;;;;26.02;22.02;;;13.40;89.50;;;;;;4907190;29;20043;-81
2023/09/16 02:53:29;;;;;;;28.35;22.02;;;13.30;89.50;;;;;;4923318;29;20090;-84
2023/09/16 02:55:58;;;;;;;25.85;20.95;;;13.30;89.60;;;;;;4922966;29;20043;-81
2023/09/16 02:58:23;;;;;;;22.02;19.75;;;13.40;89.70;;;;;;4917032;28;20035;-84
2023/09/16 03:00:49;;;;;;;24.35;21.85;;;13.40;89.80;;;;;;4941922;28;20094;-81
2023/09/16 03:03:15;;;;;;;23.13;20.83;;;13.40;89.80;;;;;;4926314;28;20045;-83
2023/09/16 03:05:45;;;;;;;23.40;20.95;;;13.40;89.80;;;;;;4910609;28;20387;-83
2023/09/16 03:08:11;;;;;;;26.10;23.33;;;13.30;89.90;;;;;;4942121;28;20047;-84
2023/09/16 03:10:37;;;;;;;26.48;23.77;;;13.40;90.00;;;;;;4910286;28;20062;-82
2023/09/16 03:13:02;;;;;;;28.95;25.40;;;13.40;90.00;;;;;;4941845;28;20039;-82
2023/09/16 03:15:28;;;;;;;28.90;24.02;;;13.30;89.80;;;;;;4924974;28;20510;-82
2023/09/16 03:17:54;;;;;;;26.75;24.10;;;13.30;89.80;;;;;;4941526;28;20043;-82
2023/09/16 03:20:19;;;;;;;28.42;25.42;;;13.40;90.00;;;;;;4941535;28;20277;-84
2023/09/16 03:22:45;;;;;;;24.98;22.23;;;13.40;90.10;;;;;;4941412;28;20034;-82
2023/09/16 03:25:11;;;;;;;24.02;21.35;;;13.40;90.10;;;;;;4925515;28;20061;-81
2023/09/16 03:27:37;;;;;;;19.95;17.83;;;13.50;90.30;;;;;;4925767;28;20510;-83
2023/09/16 03:30:04;;;;;;;19.25;17.45;;;13.40;90.30;;;;;;4910367;28;20487;-81
2023/09/16 03:32:30;;;;;;;22.83;20.52;;;13.40;90.20;;;;;;4956815;28;20050;-83
2023/09/16 03:34:55;;;;;;;24.88;22.25;;;13.40;90.30;;;;;;4931484;28;20062;-81
2023/09/16 03:37:21;;;;;;;24.90;22.33;;;13.40;90.10;;;;;;4926241;28;20066;-82
2023/09/16 03:39:47;;;;;;;21.35;19.25;;;13.30;89.80;;;;;;4945222;28;20126;-82
2023/09/16 03:42:13;;;;;;;21.15;19.08;;;13.30;90.10;;;;;;4953377;28;20270;-80
2023/09/16 03:44:38;;;;;;;22.83;20.52;;;13.30;90.40;;;;;;4937984;28;20112;-81
2023/09/16 03:47:06;;;;;;;23.17;20.85;;;13.30;90.30;;;;;;4921513;28;20051;-81
2023/09/16 03:49:32;;;;;;;24.25;21.85;;;13.20;90.10;;;;;;4952380;28;20046;-81
2023/09/16 03:51:57;;;;;;;22.92;20.35;;;13.20;90.30;;;;;;4969134;28;20130;-81
2023/09/16 03:54:23;;;;;;;23.65;21.13;;;13.20;90.20;;;;;;4968084;28;20047;-81
2023/09/16 03:56:49;;;;;;;20.45;18.33;;;13.20;90.20;;;;;;4932679;28;20038;-83
2023/09/16 03:59:14;;;;;;;25.50;21.80;;;13.10;90.10;;;;;;4917041;28;20089;-83
2023/09/16 04:01:40;;;;;;;24.20;21.60;;;13.10;90.40;;;;;;4957994;28;20055;-84
2023/09/16 04:04:07;;;;;;;24.02;21.40;;;13.00;90.40;;;;;;4928955;28;20470;-85
2023/09/16 04:06:33;;;;;;;25.08;22.40;;;13.00;90.40;;;;;;4935235;29;20050;-83
2023/09/16 04:08:58;;;;;;;22.65;20.08;;;13.00;90.50;;;;;;4912808;29;20404;-82
2023/09/16 04:11:24;;;;;;;23.38;20.98;;;13.00;90.40;;;;;;4909115;29;20039;-81
2023/09/16 04:13:50;;;;;;;25.10;22.40;;;12.90;90.30;;;;;;4910875;28;20058;-82
2023/09/16 04:16:15;;;;;;;40.17;22.35;;;12.90;90.20;;;;;;4925138;28;20070;-83
2023/09/16 04:18:41;;;;;;;17.52;15.93;;;12.80;90.40;;;;;;4941162;28;20043;-85
2023/09/16 04:21:07;;;;;;;18.58;16.88;;;12.80;90.40;;;;;;4956708;28;20522;-86
2023/09/16 04:23:35;;;;;;;17.75;16.15;;;12.70;90.60;;;;;;4957151;28;20054;-84
2023/09/16 04:26:00;;;;;;;17.27;15.77;;;12.60;90.70;;;;;;4941089;28;20055;-84
2023/09/16 04:28:27;;;;;;;17.15;15.65;;;12.60;90.70;;;;;;4956883;28;20097;-83
2023/09/16 04:30:53;;;;;;;16.95;15.35;;;12.60;90.60;;;;;;4956774;28;20118;-81
2023/09/16 04:33:20;;;;;;;15.27;13.68;;;12.60;90.50;;;;;;4939779;28;20047;-82
2023/09/16 04:35:48;;;;;;;13.38;12.18;;;12.50;90.70;;;;;;4940661;28;20487;-82
2023/09/16 04:38:15;;;;;;;15.55;14.07;;;12.50;90.60;;;;;;4940161;28;20042;-82
2023/09/16 04:40:42;;;;;;;17.60;15.90;;;12.50;90.50;;;;;;4940178;28;20097;-81
2023/09/16 04:43:08;;;;;;;14.52;13.20;;;12.50;90.50;;;;;;4956190;28;20046;-84
2023/09/16 04:45:34;;;;;;;15.25;13.73;;;12.40;90.60;;;;;;4956406;28;20514;-85
2023/09/16 04:48:02;;;;;;;14.50;13.18;;;12.40;90.70;;;;;;4960251;28;20043;-83
2023/09/16 04:50:28;;;;;;;17.25;15.70;;;12.40;90.80;;;;;;4940765;28;20495;-84
2023/09/16 04:52:55;;;;;;;19.50;17.52;;;12.30;90.80;;;;;;4947839;28;20050;-81
2023/09/16 04:55:21;;;;;;;18.38;16.48;;;12.30;90.90;;;;;;4959946;28;20514;-82
2023/09/16 04:57:47;;;;;;;17.25;15.45;;;12.30;91.00;;;;;;4928357;28;20043;-84
2023/09/16 05:00:13;;;;;;;17.98;16.23;;;12.30;91.10;;;;;;4959742;28;20353;-84
2023/09/16 05:02:38;;;;;;;15.05;13.48;;;12.30;91.00;;;;;;4927974;28;20094;-84
2023/09/16 05:05:04;;;;;;;18.95;17.00;;;12.30;91.00;;;;;;4926874;28;20078;-80
2023/09/16 05:07:30;;;;;;;14.77;13.38;;;12.40;91.10;;;;;;4943354;28;20050;-84
2023/09/16 05:09:56;;;;;;;13.02;11.77;;;12.50;91.00;;;;;;4927790;28;20130;-81
2023/09/16 05:12:22;;;;;;;11.48;10.40;;;12.50;90.90;;;;;;4959616;28;20049;-85
2023/09/16 05:14:49;;;;;;;17.63;14.05;;;12.60;90.80;;;;;;4928172;28;20043;-85
2023/09/16 05:17:15;;;;;;;18.60;14.93;;;12.70;90.60;;;;;;4928452;28;20042;-82
2023/09/16 05:19:41;;;;;;;15.27;13.77;;;12.70;90.50;;;;;;4932272;29;20492;-81
2023/09/16 05:22:07;;;;;;;15.93;10.27;;;12.70;90.40;;;;;;4925158;29;20042;-83
2023/09/16 05:24:33;;;;;;;13.07;11.38;;;12.70;90.30;;;;;;4907170;29;20134;-83
2023/09/16 05:26:59;;;;;;;10.55;9.55;;;12.80;90.30;;;;;;4939883;29;20499;-86
2023/09/16 05:29:25;;;;;;;67.50;15.88;;;12.80;90.30;;;;;;4940356;28;20125;-83
2023/09/16 05:31:53;;;;;;;26.85;14.50;;;12.90;90.30;;;;;;4924496;29;20086;-87
2023/09/16 05:34:19;;;;;;;20.38;11.75;;;12.90;90.20;;;;;;4924403;29;20039;-86
2023/09/16 05:36:44;;;;;;;28.35;14.55;;;12.90;90.30;;;;;;4925733;28;20039;-83
2023/09/16 05:39:10;;;;;;;7.03;6.32;;;12.80;90.20;;;;;;4943427;28;20045;-82
2023/09/16 05:41:36;;;;;;;66.43;57.17;;;12.80;90.30;;;;;;4943292;28;20038;-81
2023/09/16 05:44:02;;;;;;;137.98;127.53;;;12.80;90.50;;;;;;4927627;28;20047;-83
2023/09/16 05:46:28;;;;;;;14.75;13.27;;;12.90;90.30;;;;;;4943729;28;20133;-80
2023/09/16 05:49:06;;;;;;;1613.85;157.85;;;12.90;90.20;;;;;;4959425;28;20376;-83
2023/09/16 05:51:32;;;;;;;292.38;30.80;;;12.90;90.10;;;;;;4928939;28;20047;-81
2023/09/16 05:53:58;;;;;;;65.75;15.52;;;13.00;89.90;;;;;;4910717;28;20126;-82
2023/09/16 05:56:24;;;;;;;29.02;12.75;;;13.00;89.80;;;;;;4958954;28;20126;-82
2023/09/16 05:58:49;;;;;;;13.35;12.13;;;13.00;89.80;;;;;;4958860;28;20035;-82
2023/09/16 06:01:15;;;;;;;16.30;13.82;;;12.90;89.80;;;;;;4943030;28;20074;-82
2023/09/16 06:03:41;;;;;;;15.98;11.20;;;12.90;89.90;;;;;;4927226;28;20042;-83
2023/09/16 06:06:06;;;;;;;13.98;12.65;;;12.90;90.00;;;;;;4941790;28;20098;-83
2023/09/16 06:08:32;;;;;;;13.57;12.48;;;12.80;90.10;;;;;;4926895;28;20483;-81
2023/09/16 06:10:58;;;;;;;14.40;13.18;;;12.90;90.20;;;;;;4941673;28;20146;-79
2023/09/16 06:13:24;;;;;;;14.30;12.80;;;12.90;90.10;;;;;;4942856;28;20050;-81
2023/09/16 06:15:49;;;;;;;14.20;12.70;;;12.90;90.20;;;;;;4958679;28;20066;-80
2023/09/16 06:18:15;;;;;;;12.55;11.35;;;13.00;90.20;;;;;;4942642;28;20474;-80
2023/09/16 06:20:41;;;;;;;17.10;15.38;;;13.00;90.20;;;;;;4942843;28;20047;-83
2023/09/16 06:23:07;;;;;;;12.27;9.55;;;13.00;90.30;;;;;;4958375;28;20487;-81
2023/09/16 06:25:34;;;;;;;16.92;15.38;;;13.00;90.60;;;;;;4925533;28;20105;-80
2023/09/16 06:27:59;;;;;;;15.77;14.30;;;13.00;90.70;;;;;;4958554;28;20050;-79
2023/09/16 06:30:25;;;;;;;14.60;13.10;;;13.00;90.90;;;;;;4942434;28;20038;-79
2023/09/16 06:32:54;;;;;;;19.13;17.33;;;13.00;91.10;;;;;;4958421;28;20046;-80
2023/09/16 06:35:20;;;;;;;22.77;20.25;;;13.20;90.90;;;;;;4926597;28;20570;-79
2023/09/16 06:37:46;;;;;;;20.70;18.73;;;13.20;91.10;;;;;;4958385;28;20399;-76
2023/09/16 06:40:12;;;;;;;21.77;19.70;;;13.30;91.00;;;;;;4958594;28;20043;-80
2023/09/16 06:42:37;;;;;;;23.73;21.33;;;13.40;91.10;;;;;;4925375;28;20049;-79
2023/09/16 06:45:03;;;;;;;24.08;21.58;;;13.50;91.20;;;;;;4942106;28;20050;-79
2023/09/16 06:47:29;;;;;;;19.67;17.70;;;13.50;91.20;;;;;;4942461;28;20061;-79
2023/09/16 06:49:56;;;;;;;26.50;23.90;;;13.50;91.30;;;;;;4926266;28;20045;-82
2023/09/16 06:52:22;;;;;;;21.27;18.98;;;13.60;91.10;;;;;;4957874;28;20491;-80
2023/09/16 06:54:49;;;;;;;22.73;20.42;;;13.60;91.10;;;;;;4926017;28;20083;-79
2023/09/16 06:57:15;;;;;;;18.77;16.88;;;13.70;91.00;;;;;;4941535;28;20038;-82
2023/09/16 06:59:45;;;;;;;22.98;20.55;;;13.80;91.00;;;;;;4953149;28;20047;-81
2023/09/16 07:02:11;;;;;;;22.45;20.33;;;13.90;90.90;;;;;;4922723;29;20122;-81
2023/09/16 07:04:40;;;;;;;26.85;24.15;;;14.00;90.70;;;;;;4907090;29;20133;-78
2023/09/16 07:07:09;;;;;;;19.52;17.55;;;14.00;90.60;;;;;;4938621;29;20444;-79
2023/09/16 07:09:34;;;;;;;25.40;21.58;;;14.20;90.70;;;;;;4939104;28;20049;-81
2023/09/16 07:12:00;;;;;;;25.48;21.92;;;14.30;90.90;;;;;;4907167;29;20503;-78
2023/09/16 07:14:26;;;;;;;25.83;23.33;;;14.50;91.00;;;;;;4922788;29;20408;-79
2023/09/16 07:16:52;;;;;;;19.23;16.23;;;14.50;90.90;;;;;;4932990;28;20491;-80
2023/09/16 07:19:17;;;;;;;20.45;18.38;;;14.50;90.80;;;;;;4941466;28;20074;-82
2023/09/16 07:21:43;;;;;;;19.50;17.00;;;14.70;90.70;;;;;;4957645;28;20042;-80
2023/09/16 07:24:09;;;;;;;23.80;21.40;;;14.80;90.70;;;;;;4957331;28;20463;-80
2023/09/16 07:26:35;;;;;;;25.67;23.00;;;14.90;90.70;;;;;;4941757;28;20050;-79
2023/09/16 07:29:00;;;;;;;23.63;21.15;;;15.00;90.60;;;;;;4957517;28;20047;-81
2023/09/16 07:31:26;;;;;;;25.73;23.15;;;15.10;90.70;;;;;;4941343;28;20505;-81
2023/09/16 07:33:52;;;;;;;24.98;22.27;;;15.20;90.60;;;;;;4955987;28;20117;-81
2023/09/16 07:36:17;;;;;;;20.60;18.50;;;15.30;90.70;;;;;;4925524;28;20130;-80
2023/09/16 07:38:44;;;;;;;16.83;15.20;;;15.40;90.80;;;;;;4957393;28;20546;-81
2023/09/16 07:41:10;;;;;;;25.70;23.10;;;15.50;90.80;;;;;;4925510;28;20042;-82
2023/09/16 07:43:36;;;;;;;23.95;21.55;;;15.60;90.60;;;;;;4957092;28;20042;-79
2023/09/16 07:46:02;;;;;;;23.25;21.05;;;15.70;90.70;;;;;;4957153;28;20042;-81
2023/09/16 07:48:28;;;;;;;18.65;16.75;;;15.80;90.70;;;;;;4957273;28;20047;-82
2023/09/16 07:50:54;;;;;;;23.67;21.17;;;15.90;90.70;;;;;;4955871;28;20379;-81
2023/09/16 07:53:21;;;;;;;20.67;18.27;;;16.00;90.50;;;;;;4940915;28;20122;-80
2023/09/16 07:55:46;;;;;;;23.70;21.30;;;16.10;90.60;;;;;;4941328;28;20057;-84
2023/09/16 07:58:12;;;;;;;23.95;20.77;;;16.30;90.70;;;;;;4925267;28;20557;-81
2023/09/16 08:00:38;;;;;;;23.13;20.75;;;16.40;91.00;;;;;;4940968;28;20042;-82
2023/09/16 08:03:04;;;;;;;24.40;21.23;;;16.50;90.30;;;;;;4941149;28;20035;-84
2023/09/16 08:05:29;;;;;;;19.17;17.15;;;16.60;90.30;;;;;;4940822;28;20119;-84
2023/09/16 08:07:55;;;;;;;20.38;18.27;;;16.70;90.00;;;;;;4939942;28;20053;-80
2023/09/16 08:10:21;;;;;;;23.25;20.95;;;16.90;90.30;;;;;;4940738;28;20049;-81
2023/09/16 08:12:47;;;;;;;24.55;21.95;;;17.00;90.10;;;;;;4925148;28;20046;-82
2023/09/16 08:15:12;;;;;;;22.50;19.33;;;17.10;90.00;;;;;;4956624;28;20483;-81
2023/09/16 08:17:38;;;;;;;18.00;16.13;;;17.30;89.60;;;;;;4940809;28;20038;-82
2023/09/16 08:20:06;;;;;;;21.35;19.02;;;17.40;89.50;;;;;;4956820;28;20042;-81
2023/09/16 08:22:31;;;;;;;22.13;19.63;;;17.50;89.40;;;;;;4940635;28;20047;-82
2023/09/16 08:24:57;;;;;;;22.30;19.85;;;17.70;89.20;;;;;;4939449;28;20069;-81
2023/09/16 08:27:23;;;;;;;19.42;17.52;;;17.80;89.00;;;;;;4940912;28;20115;-79
2023/09/16 08:29:52;;;;;;;19.73;15.57;;;17.90;88.90;;;;;;4943048;28;20047;-79
2023/09/16 08:32:18;;;;;;;18.35;14.80;;;18.00;88.60;;;;;;4944794;28;20042;-81
2023/09/16 08:34:44;;;;;;;17.77;14.52;;;18.10;88.30;;;;;;4944572;28;20129;-81
2023/09/16 08:37:11;;;;;;;19.27;15.02;;;18.20;87.90;;;;;;4960397;28;20563;-80
2023/09/16 08:39:37;;;;;;;17.58;14.80;;;18.50;87.20;;;;;;4944535;28;20049;-80
2023/09/16 08:42:25;;;;;;;17.80;14.48;;;18.60;87.20;;;;;;4958896;28;20039;-81
2023/09/16 08:44:53;;;;;;;15.48;13.80;;;18.70;86.70;;;;;;4960250;28;20047;-80
2023/09/16 08:47:31;;;;;;;17.27;12.73;;;18.80;86.30;;;;;;4960566;28;20068;-82
2023/09/16 08:50:05;;;;;;;14.77;13.20;;;18.90;85.80;;;;;;4960897;28;20053;-80
2023/09/16 08:52:46;;;;;;;28.90;14.75;;;19.00;85.30;;;;;;4944220;28;20050;-83
2023/09/16 08:55:13;;;;;;;13.32;11.63;;;19.20;85.10;;;;;;4960022;28;20159;-78
2023/09/16 08:58:00;;;;;;;14.18;12.60;;;19.30;84.60;;;;;;4943208;28;20391;-81
2023/09/16 09:00:26;;;;;;;49.42;15.63;;;19.40;83.60;;;;;;4960015;28;20129;-80
2023/09/16 09:02:53;;;;;;;50.10;19.73;;;19.40;83.20;;;;;;4944150;28;20130;-81
2023/09/16 09:05:20;;;;;;;92.38;25.30;;;19.40;82.40;;;;;;4943838;28;20058;-79
2023/09/16 09:07:47;;;;;;;118.50;29.48;;;19.50;81.80;;;;;;4944291;28;20105;-78
2023/09/16 09:10:13;;;;;;;31.90;16.23;;;19.70;82.00;;;;;;4928587;28;20051;-79
2023/09/16 09:12:40;;;;;;;18.60;12.80;;;19.80;81.70;;;;;;4959090;28;20045;-81
2023/09/16 09:15:13;;;;;;;546.78;103.70;;;19.90;81.40;;;;;;4947272;28;20043;-79
2023/09/16 09:17:45;;;;;;;23.52;14.02;;;20.00;80.70;;;;;;4960998;28;20034;-78
2023/09/16 09:20:19;;;;;;;33.10;15.80;;;20.20;80.10;;;;;;4959789;28;20054;-79
2023/09/16 09:22:51;;;;;;;39.42;17.85;;;20.40;79.60;;;;;;4943612;28;20041;-80
2023/09/16 09:25:24;;;;;;;28.73;14.20;;;20.50;79.20;;;;;;4958958;28;20062;-81
2023/09/16 09:27:51;;;;;;;26.45;13.95;;;20.60;78.50;;;;;;4942670;28;20160;-83
2023/09/16 09:30:26;;;;;;;79.80;22.52;;;20.70;78.10;;;;;;4942001;28;20163;-84
2023/09/16 09:32:55;;;;;;;340.08;63.38;;;20.90;77.90;;;;;;4942575;28;20372;-81
2023/09/16 09:35:22;;;;;;;167.15;30.52;;;21.00;77.20;;;;;;4958390;28;20051;-81
2023/09/16 09:37:49;;;;;;;32.63;12.15;;;21.00;76.10;;;;;;4958168;28;20035;-80
2023/09/16 09:40:15;;;;;;;10.77;8.52;;;21.20;75.70;;;;;;4958265;28;20043;-79
2023/09/16 09:42:46;;;;;;;35.30;13.65;;;21.20;74.40;;;;;;4942569;28;20050;-79
2023/09/16 09:45:14;;;;;;;1999.90;538.78;;;21.30;73.70;;;;;;4942434;28;20047;-79
2023/09/16 09:47:41;;;;;;;107.07;27.02;;;21.40;73.80;;;;;;4957120;28;20495;-79
2023/09/16 09:50:11;;;;;;;707.90;114.10;;;21.60;74.10;;;;;;4958144;28;20049;-80
2023/09/16 09:52:37;;;;;;;234.50;41.97;;;21.70;73.90;;;;;;4957897;28;20130;-79
2023/09/16 09:55:03;;;;;;;83.95;23.13;;;21.90;73.60;;;;;;4941886;28;20122;-79
2023/09/16 09:57:29;;;;;;;94.05;21.15;;;22.00;72.70;;;;;;4957968;28;20093;-80
2023/09/16 09:59:56;;;;;;;27.25;11.95;;;22.10;72.40;;;;;;4957820;28;20042;-80
2023/09/16 10:02:26;;;;;;;14.50;9.27;;;22.20;71.20;;;;;;4922056;29;20039;-80
2023/09/16 10:05:02;;;;;;;1871.88;275.25;;;22.30;70.20;;;;;;4938966;29;20066;-78
2023/09/16 10:07:31;;;;;;;1037.78;191.20;;;22.40;69.10;;;;;;4922796;29;20043;-80
2023/09/16 10:09:57;;;;;;;1267.30;220.23;;;22.50;69.30;;;;;;4922982;29;20039;-82
2023/09/16 10:12:23;;;;;;;123.90;26.95;;;22.60;68.80;;;;;;4938603;29;20054;-82
2023/09/16 10:14:51;;;;;;;67.32;17.20;;;22.80;68.90;;;;;;4938659;28;20043;-80
2023/09/16 10:17:17;;;;;;;43.72;12.52;;;22.90;68.20;;;;;;4923478;29;20074;-83
2023/09/16 10:19:43;;;;;;;1049.95;196.45;;;23.00;66.90;;;;;;4938759;28;20086;-81
2023/09/16 10:22:11;;;;;;;473.67;79.43;;;23.10;66.50;;;;;;4941824;28;20046;-82
2023/09/16 10:24:40;;;;;;;29.30;12.33;;;23.30;66.70;;;;;;4919390;28;1116907;-79
2023/09/16 10:27:13;;;;;;;31.08;9.45;;;23.40;65.70;;;;;;4958261;28;20297;-80
2023/09/16 10:29:40;;;;;;;45.72;12.65;;;23.50;64.90;;;;;;4942568;28;20043;-79
2023/09/16 10:32:06;;;;;;;43.85;12.07;;;23.50;64.10;;;;;;4942239;28;20050;-79
2023/09/16 10:34:32;;;;;;;95.28;21.15;;;23.70;64.40;;;;;;4957200;28;20046;-79
2023/09/16 10:36:58;;;;;;;27.27;8.90;;;23.70;63.40;;;;;;4942370;28;20046;-79
2023/09/16 10:39:26;;;;;;;20.35;8.02;;;23.70;62.40;;;;;;4942484;28;20038;-79
2023/09/16 10:41:53;;;;;;;23.52;7.95;;;23.80;61.40;;;;;;4926404;28;20043;-82
2023/09/16 10:44:20;;;;;;;32.83;9.48;;;23.90;61.10;;;;;;4958013;28;20054;-84
2023/09/16 10:46:47;;;;;;;37.30;8.20;;;23.90;60.30;;;;;;4958090;28;20135;-84
2023/09/16 10:49:15;;;;;;;15.05;6.47;;;23.90;60.70;;;;;;4942891;28;20066;-82
2023/09/16 10:51:42;;;;;;;15.18;6.53;;;24.00;60.40;;;;;;4924766;28;20038;-78
2023/09/16 10:55:04;;;;;;;8.95;6.07;;;24.20;60.30;;;;;;4942191;28;20503;-78
2023/09/16 10:57:46;;;;;;;7.88;5.28;;;24.20;59.80;;;;;;4926080;28;20109;-78
2023/09/16 11:00:13;;;;;;;6.38;4.72;;;24.40;59.30;;;;;;4942288;28;20475;-78
2023/09/16 11:02:53;;;;;;;6.97;4.70;;;24.50;59.00;;;;;;4958148;28;20074;-78
2023/09/16 11:05:19;;;;;;;10.98;5.88;;;24.60;59.00;;;;;;4958622;28;20038;-79
2023/09/16 11:07:45;;;;;;;9.18;5.05;;;24.90;59.30;;;;;;4925795;28;20047;-78
2023/09/16 11:10:12;;;;;;;7.50;5.00;;;25.00;58.90;;;;;;4958593;28;20054;-80
2023/09/16 11:12:39;;;;;;;6.05;5.07;;;25.10;58.50;;;;;;4926636;28;20051;-79
2023/09/16 11:15:09;;;;;;;8.27;5.18;;;25.20;57.30;;;;;;4942217;28;20047;-80
2023/09/16 11:17:39;;;;;;;9.70;5.10;;;25.20;57.00;;;;;;4958236;28;20122;-80
2023/09/16 11:20:21;;;;;;;8.25;4.20;;;25.40;56.30;;;;;;4957619;28;20490;-80
2023/09/16 11:22:48;;;;;;;5.63;4.50;;;25.50;55.50;;;;;;4930415;29;20035;-80
2023/09/16 11:25:17;;;;;;;5.40;3.95;;;25.60;55.40;;;;;;4920306;29;20091;-79
2023/09/16 11:27:46;;;;;;;6.88;4.20;;;25.70;54.10;;;;;;4922557;28;20525;-78
2023/09/16 11:30:14;;;;;;;8.35;4.40;;;25.80;53.20;;;;;;4922730;29;20470;-79
2023/09/16 11:33:00;;;;;;;6.75;3.83;;;25.90;53.20;;;;;;4923782;29;20051;-79
2023/09/16 11:35:29;;;;;;;5.35;4.20;;;26.00;53.30;;;;;;4926140;29;20082;-79
2023/09/16 11:37:55;;;;;;;5.43;3.95;;;26.00;51.20;;;;;;4922241;29;20039;-77
2023/09/16 11:40:33;;;;;;;4.90;4.00;;;26.00;51.50;;;;;;4934184;28;20376;-78
2023/09/16 11:42:59;;;;;;;8.40;5.15;;;26.00;51.30;;;;;;4941209;28;20121;-78
2023/09/16 11:45:27;;;;;;;7.03;4.60;;;26.00;51.10;;;;;;4941083;28;20046;-78
2023/09/16 11:47:53;;;;;;;6.30;3.83;;;25.90;51.90;;;;;;4957311;28;20043;-78
2023/09/16 11:50:24;;;;;;;4.32;3.33;;;25.70;52.80;;;;;;4941579;28;20045;-77
2023/09/16 11:52:49;;;;;;;4.65;3.67;;;25.80;53.50;;;;;;4941004;28;20042;-78
2023/09/16 11:55:16;;;;;;;5.32;4.25;;;25.90;53.40;;;;;;4956369;28;20125;-78
2023/09/16 11:57:42;;;;;;;5.93;4.38;;;26.00;51.50;;;;;;4911072;28;20464;-78
2023/09/16 12:00:09;;;;;;;5.32;4.00;;;26.30;52.30;;;;;;4958345;28;20117;-78
2023/09/16 12:02:35;;;;;;;6.45;4.75;;;26.40;52.00;;;;;;4958867;28;20046;-77
2023/09/16 12:05:03;;;;;;;5.20;4.32;;;26.50;51.00;;;;;;4956592;28;20376;-79
2023/09/16 12:07:32;;;;;;;5.55;4.30;;;26.60;51.40;;;;;;4925426;28;20090;-78
2023/09/16 12:10:02;;;;;;;6.93;4.30;;;26.80;51.70;;;;;;4957129;28;20042;-79
2023/09/16 12:12:28;;;;;;;4.95;3.90;;;26.90;52.40;;;;;;4922103;29;20488;-78
2023/09/16 12:14:59;;;;;;;4.97;3.40;;;26.80;51.90;;;;;;4953959;28;20053;-79
2023/09/16 12:17:25;;;;;;;5.40;4.15;;;26.70;51.50;;;;;;4938443;29;20035;-77
2023/09/16 12:19:53;;;;;;;5.15;3.70;;;26.80;51.20;;;;;;4937717;28;20042;-76
2023/09/16 12:22:19;;;;;;;6.22;4.00;;;26.90;49.90;;;;;;4937788;29;20073;-78
2023/09/16 12:24:45;;;;;;;4.90;3.88;;;27.00;49.40;;;;;;4953749;28;20043;-78
2023/09/16 12:27:12;;;;;;;5.85;3.67;;;27.10;49.20;;;;;;4938013;28;20055;-77
2023/09/16 12:29:38;;;;;;;5.57;3.92;;;27.30;49.00;;;;;;4941046;28;20054;-77